Time;durP1;ratioP1;P1;durP2;ratioP2;P2;SDS_P1;SDS_P2;PMS_P1;PMS_P2;Temp;Humidity;BMP_temperature;BMP_pressure;BME280_temperature;BME280_humidity;BME280_pressure;Samples;Min_cycle;Max_cycle;Signal;HPM_P1;HPM_P2
2021/12/15 00:01:13;;;;;;;1.92;1.27;;;20.60;55.10;;;;;;5059302;28;20109;-43
2021/12/15 00:03:41;;;;;;;2.33;1.50;;;20.60;54.80;;;;;;5059696;28;20183;-43
2021/12/15 00:06:12;;;;;;;2.50;1.30;;;20.60;54.80;;;;;;5054090;28;20124;-44
2021/12/15 00:08:39;;;;;;;2.90;1.70;;;20.60;54.70;;;;;;5039181;28;20052;-43
2021/12/15 00:11:05;;;;;;;1.88;1.27;;;20.60;54.70;;;;;;5039766;28;20037;-45
2021/12/15 00:13:32;;;;;;;2.33;1.67;;;20.60;54.70;;;;;;5037104;28;20044;-45
2021/12/15 00:15:58;;;;;;;3.10;1.20;;;20.60;55.00;;;;;;5039314;28;20036;-44
2021/12/15 00:18:24;;;;;;;2.25;1.33;;;20.60;55.10;;;;;;5039213;28;20033;-43
2021/12/15 00:20:50;;;;;;;2.15;1.55;;;20.60;55.10;;;;;;5015708;28;20036;-46
2021/12/15 00:23:17;;;;;;;1.60;1.13;;;20.70;54.90;;;;;;5021747;28;20030;-44
2021/12/15 00:25:43;;;;;;;2.38;1.20;;;20.60;54.70;;;;;;5019564;28;20061;-43
2021/12/15 00:28:09;;;;;;;4.28;1.38;;;20.60;54.70;;;;;;5028850;28;20025;-43
2021/12/15 00:30:36;;;;;;;2.00;1.30;;;20.60;54.60;;;;;;5063004;28;20625;-44
2021/12/15 00:33:02;;;;;;;3.08;1.40;;;20.50;54.60;;;;;;5062930;27;20049;-43
2021/12/15 00:35:28;;;;;;;2.08;1.40;;;20.60;54.90;;;;;;5062922;27;20033;-45
2021/12/15 00:37:54;;;;;;;1.55;1.02;;;20.60;55.00;;;;;;5062166;28;20044;-43
2021/12/15 00:40:22;;;;;;;1.75;1.20;;;20.60;55.00;;;;;;5053127;28;20110;-45
2021/12/15 00:42:48;;;;;;;1.65;1.20;;;20.70;54.90;;;;;;5042999;28;20110;-43
2021/12/15 00:45:15;;;;;;;1.95;1.30;;;20.70;54.70;;;;;;5042759;28;20029;-43
2021/12/15 00:47:42;;;;;;;2.00;1.30;;;20.60;54.60;;;;;;5042173;28;20026;-44
2021/12/15 00:50:09;;;;;;;1.70;1.20;;;20.60;54.60;;;;;;5055945;28;20035;-43
2021/12/15 00:52:36;;;;;;;1.85;1.60;;;20.60;54.60;;;;;;5042587;28;20093;-45
2021/12/15 00:55:04;;;;;;;1.40;1.20;;;20.50;54.60;;;;;;5042916;28;20037;-44
2021/12/15 00:57:30;;;;;;;1.80;1.25;;;20.60;54.90;;;;;;5044650;28;20097;-43
2021/12/15 00:59:56;;;;;;;1.73;1.10;;;20.60;54.90;;;;;;5061061;28;20033;-44
2021/12/15 01:02:22;;;;;;;1.65;1.25;;;20.60;54.90;;;;;;5135191;27;20054;-43
2021/12/15 01:04:48;;;;;;;1.98;1.10;;;20.70;54.70;;;;;;5167841;27;20417;-43
2021/12/15 01:07:15;;;;;;;1.30;1.10;;;20.60;54.50;;;;;;5167892;27;20038;-43
2021/12/15 01:09:47;;;;;;;1.50;1.30;;;20.60;54.40;;;;;;5167599;27;20679;-43
2021/12/15 01:12:43;;;;;;;1.85;1.25;;;20.60;54.50;;;;;;5170398;27;20035;-45
2021/12/15 01:20:50;;;;;;;1.95;1.10;;;20.70;54.90;;;;;;5163495;27;20030;-44
2021/12/15 01:23:18;;;;;;;1.48;1.15;;;20.70;54.60;;;;;;5146596;27;20094;-44
2021/12/15 01:25:47;;;;;;;2.10;1.25;;;20.60;54.40;;;;;;5146599;27;20511;-43
2021/12/15 01:28:14;;;;;;;2.05;1.00;;;20.60;54.40;;;;;;5164860;27;20029;-45
2021/12/15 01:30:42;;;;;;;1.60;1.10;;;20.60;54.50;;;;;;5167564;27;20031;-44
2021/12/15 01:33:09;;;;;;;1.50;1.10;;;20.60;54.70;;;;;;5167380;27;20027;-44
2021/12/15 01:35:36;;;;;;;1.47;1.00;;;20.60;54.80;;;;;;5167497;27;20089;-44
2021/12/15 01:38:02;;;;;;;1.60;1.23;;;20.70;54.80;;;;;;5166270;27;20738;-44
2021/12/15 01:40:40;;;;;;;1.35;1.25;;;20.70;54.50;;;;;;5166496;27;20486;-45
2021/12/15 01:43:23;;;;;;;1.38;1.20;;;20.60;54.30;;;;;;5167243;27;20048;-44
2021/12/15 01:48:39;;;;;;;1.88;1.20;;;20.50;54.30;;;;;;5146038;27;20038;-44
2021/12/15 01:51:07;;;;;;;1.97;1.27;;;20.50;54.40;;;;;;5156241;27;20026;-43
2021/12/15 01:53:33;;;;;;;2.55;1.17;;;20.60;54.70;;;;;;5164031;27;20086;-44
2021/12/15 01:56:00;;;;;;;2.33;1.35;;;20.60;54.70;;;;;;5164391;27;20033;-43
2021/12/15 01:58:26;;;;;;;1.52;1.00;;;20.70;54.70;;;;;;5164468;27;20098;-43
2021/12/15 02:00:58;;;;;;;1.40;1.10;;;20.70;54.40;;;;;;5164689;27;20050;-44
2021/12/15 02:03:24;;;;;;;2.55;1.20;;;20.60;54.20;;;;;;5164020;27;20038;-44
2021/12/15 02:05:51;;;;;;;1.70;1.20;;;20.60;54.20;;;;;;5164947;27;20754;-45
2021/12/15 02:08:17;;;;;;;1.70;1.25;;;20.50;54.30;;;;;;5164418;27;20733;-44
2021/12/15 02:10:43;;;;;;;2.87;1.40;;;20.50;54.40;;;;;;5145460;27;20023;-44
2021/12/15 02:13:11;;;;;;;1.65;1.40;;;20.60;54.60;;;;;;5164382;27;20027;-43
2021/12/15 02:15:41;;;;;;;2.28;1.25;;;20.60;54.60;;;;;;5164694;27;20027;-44
2021/12/15 02:18:09;;;;;;;1.48;1.38;;;20.70;54.60;;;;;;5164281;27;20030;-44
2021/12/15 02:20:40;;;;;;;1.50;1.27;;;20.70;54.40;;;;;;5162694;27;20447;-43
2021/12/15 02:23:07;;;;;;;1.65;1.27;;;20.60;54.20;;;;;;5163225;27;20027;-44
2021/12/15 02:25:33;;;;;;;;;;;20.60;54.30;;;;;;5164942;27;20038;-45
2021/12/15 02:28:01;;;;;;;1.73;1.10;;;20.50;54.20;;;;;;5163963;27;19907;-44
2021/12/15 02:38:27;;;;;;;2.45;1.40;;;20.60;54.30;;;;;;5163716;27;20072;-44
2021/12/15 02:40:53;;;;;;;2.70;1.27;;;20.60;54.20;;;;;;5161302;27;20091;-45
2021/12/15 02:43:19;;;;;;;1.70;1.30;;;20.60;54.20;;;;;;5164054;27;20015;-45
2021/12/15 02:45:45;;;;;;;2.10;1.50;;;20.50;54.20;;;;;;5164063;27;20050;-45
2021/12/15 02:48:11;;;;;;;2.53;1.60;;;20.50;54.50;;;;;;5163507;27;20034;-45
2021/12/15 02:50:37;;;;;;;2.53;1.33;;;20.60;54.60;;;;;;5162389;27;20015;-44
2021/12/15 02:53:03;;;;;;;2.28;1.58;;;20.60;54.50;;;;;;5164058;27;20039;-43
2021/12/15 02:55:30;;;;;;;1.75;1.30;;;20.60;54.20;;;;;;5163834;27;20019;-44
2021/12/15 02:57:56;;;;;;;1.80;1.50;;;20.60;54.20;;;;;;5160381;27;20124;-44
2021/12/15 03:00:26;;;;;;;2.83;1.40;;;20.50;54.20;;;;;;5144923;27;20046;-44
2021/12/15 03:05:48;;;;;;;1.85;1.50;;;20.50;54.50;;;;;;5058282;28;20724;-43
2021/12/15 03:08:19;;;;;;;3.13;1.67;;;20.60;54.60;;;;;;5125921;27;20040;-44
2021/12/15 03:16:17;;;;;;;1.70;1.40;;;20.60;54.20;;;;;;5058512;28;20484;-43
2021/12/15 03:18:44;;;;;;;2.05;1.60;;;20.50;54.20;;;;;;5058376;28;20021;-44
2021/12/15 03:21:20;;;;;;;2.55;1.50;;;20.50;54.40;;;;;;5058559;27;20108;-45
2021/12/15 03:23:54;;;;;;;2.25;1.60;;;20.60;54.50;;;;;;5057848;28;20025;-44
2021/12/15 03:26:38;;;;;;;1.50;1.27;;;20.60;54.40;;;;;;5058266;28;20029;-45
2021/12/15 03:37:22;;;;;;;2.42;1.60;;;20.40;54.10;;;;;;5058521;28;20029;-45
2021/12/15 03:39:53;;;;;;;2.65;1.63;;;20.50;54.30;;;;;;5058217;27;20052;-44
2021/12/15 03:42:23;;;;;;;2.00;1.52;;;20.60;54.30;;;;;;5057986;28;20619;-44
2021/12/15 03:44:49;;;;;;;2.85;1.92;;;20.60;54.20;;;;;;5058178;27;20025;-44
2021/12/15 03:47:22;;;;;;;2.97;1.55;;;20.60;54.00;;;;;;5057518;28;20032;-45
2021/12/15 03:49:49;;;;;;;2.63;1.80;;;20.50;53.80;;;;;;5057841;28;20094;-46
2021/12/15 03:52:15;;;;;;;2.55;1.55;;;20.40;54.00;;;;;;5056291;28;20054;-47
2021/12/15 03:54:42;;;;;;;2.80;1.83;;;20.50;54.30;;;;;;5057200;28;20109;-44
2021/12/15 03:57:09;;;;;;;2.53;1.60;;;20.50;54.30;;;;;;5058170;27;20076;-44
2021/12/15 03:59:40;;;;;;;2.33;1.70;;;20.60;54.30;;;;;;5057705;28;20205;-47
2021/12/15 04:02:06;;;;;;;2.58;1.77;;;20.60;54.00;;;;;;5105838;27;20091;-45
2021/12/15 04:04:32;;;;;;;2.65;1.60;;;20.60;53.90;;;;;;5162287;27;20130;-44
2021/12/15 04:06:59;;;;;;;3.95;2.25;;;20.50;53.90;;;;;;5162461;27;20073;-46
2021/12/15 04:09:25;;;;;;;2.45;1.95;;;20.40;54.10;;;;;;5162297;27;20042;-43
2021/12/15 04:11:52;;;;;;;4.13;1.70;;;20.50;54.30;;;;;;5163887;27;20027;-45
2021/12/15 04:14:22;;;;;;;3.20;1.75;;;20.60;54.20;;;;;;5162914;27;20057;-45
2021/12/15 04:17:00;;;;;;;2.85;1.90;;;20.60;54.20;;;;;;5162396;27;20049;-43
2021/12/15 04:19:26;;;;;;;2.08;1.73;;;20.60;53.90;;;;;;5162157;27;20095;-44
2021/12/15 04:21:53;;;;;;;3.03;2.00;;;20.50;53.80;;;;;;5164010;27;20022;-43
2021/12/15 04:24:19;;;;;;;5.10;2.65;;;20.40;53.90;;;;;;5162557;27;20022;-43
2021/12/15 04:26:46;;;;;;;4.35;2.20;;;20.40;54.00;;;;;;5162147;27;20034;-46
2021/12/15 04:29:12;;;;;;;2.88;1.75;;;20.50;54.20;;;;;;5161114;27;20026;-45
2021/12/15 04:31:41;;;;;;;2.88;2.17;;;20.60;54.10;;;;;;5162193;27;20030;-43
2021/12/15 04:34:08;;;;;;;2.78;2.03;;;20.60;54.10;;;;;;5162197;27;20027;-44
2021/12/15 04:36:39;;;;;;;2.78;2.03;;;20.60;53.80;;;;;;5162224;27;20045;-44
2021/12/15 04:39:07;;;;;;;3.00;1.80;;;20.50;53.70;;;;;;5162105;27;20105;-44
2021/12/15 04:41:33;;;;;;;2.83;2.20;;;20.40;53.80;;;;;;5162263;27;20057;-44
2021/12/15 04:44:01;;;;;;;2.53;1.80;;;20.50;54.00;;;;;;5162234;27;20075;-44
2021/12/15 04:46:32;;;;;;;2.72;1.98;;;20.60;54.00;;;;;;5160884;27;20710;-45
2021/12/15 04:48:58;;;;;;;3.17;2.10;;;20.60;54.00;;;;;;5162090;27;20030;-44
2021/12/15 04:51:24;;;;;;;3.53;2.25;;;20.60;53.90;;;;;;5161536;27;20031;-45
2021/12/15 04:53:52;;;;;;;2.63;2.08;;;20.60;53.60;;;;;;5143715;27;20057;-45
2021/12/15 04:56:18;;;;;;;2.53;2.00;;;20.50;53.60;;;;;;5161505;27;20027;-44
2021/12/15 04:58:45;;;;;;;3.28;2.38;;;20.40;53.70;;;;;;5162641;27;20018;-44
2021/12/15 05:01:12;;;;;;;3.17;2.25;;;20.50;53.90;;;;;;5151959;27;20039;-44
2021/12/15 05:03:41;;;;;;;2.72;1.95;;;20.60;54.00;;;;;;5057337;28;20445;-49
2021/12/15 05:06:07;;;;;;;2.30;1.92;;;20.60;53.90;;;;;;5057113;27;20033;-43
2021/12/15 05:08:33;;;;;;;2.92;2.10;;;20.60;53.80;;;;;;5056941;28;20025;-45
2021/12/15 05:11:00;;;;;;;2.78;2.13;;;20.60;53.60;;;;;;5056932;28;20097;-44
2021/12/15 05:13:27;;;;;;;3.27;2.20;;;20.50;53.60;;;;;;5058413;28;20033;-47
2021/12/15 05:15:53;;;;;;;;;;;20.40;53.60;;;;;;5063431;28;20054;-44
2021/12/15 05:18:20;;;;;;;3.33;2.40;;;20.50;53.90;;;;;;5060291;28;19933;-43
2021/12/15 05:20:49;;;;;;;2.40;2.10;;;20.60;53.90;;;;;;5059848;27;20037;-44
2021/12/15 05:23:17;;;;;;;2.75;1.88;;;20.60;53.80;;;;;;5060258;28;20978;-45
2021/12/15 05:25:43;;;;;;;3.38;2.35;;;20.60;53.70;;;;;;5060038;27;20021;-43
2021/12/15 05:28:09;;;;;;;4.90;2.53;;;20.60;53.50;;;;;;5058686;28;20161;-43
2021/12/15 05:30:36;;;;;;;4.22;2.80;;;20.50;53.50;;;;;;5059888;28;20054;-43
2021/12/15 05:33:02;;;;;;;2.88;2.15;;;20.40;53.70;;;;;;5060217;28;20033;-44
2021/12/15 05:35:28;;;;;;;3.35;2.17;;;20.50;53.80;;;;;;5060214;28;20056;-45
2021/12/15 05:37:56;;;;;;;2.92;2.38;;;20.60;53.70;;;;;;5059650;28;20505;-45
2021/12/15 05:40:23;;;;;;;3.85;2.25;;;20.60;53.70;;;;;;5060548;27;20029;-43
2021/12/15 05:42:49;;;;;;;4.90;2.60;;;20.60;53.50;;;;;;5060328;27;20032;-43
2021/12/15 05:45:15;;;;;;;3.30;2.58;;;20.60;53.40;;;;;;5060069;28;20408;-44
2021/12/15 05:47:41;;;;;;;3.88;2.53;;;20.50;53.50;;;;;;5059532;28;20033;-43
2021/12/15 05:50:10;;;;;;;3.78;2.40;;;20.50;53.70;;;;;;5058153;28;20056;-44
2021/12/15 05:52:36;;;;;;;3.35;2.53;;;20.60;53.70;;;;;;5058814;28;20029;-47
2021/12/15 05:55:04;;;;;;;4.10;2.30;;;20.60;53.60;;;;;;5060161;27;20537;-43
2021/12/15 05:57:30;;;;;;;2.75;2.00;;;20.60;53.50;;;;;;5059399;28;20056;-44
2021/12/15 05:59:56;;;;;;;3.92;2.72;;;20.60;53.40;;;;;;5059309;27;20021;-43
2021/12/15 06:02:22;;;;;;;3.83;2.17;;;20.50;53.30;;;;;;5121230;27;20055;-45
2021/12/15 06:04:48;;;;;;;3.97;2.58;;;20.40;53.50;;;;;;5164960;27;20082;-43
2021/12/15 06:07:14;;;;;;;3.55;2.60;;;20.50;53.60;;;;;;5164625;27;20513;-44
2021/12/15 06:09:40;;;;;;;3.45;2.22;;;20.60;53.50;;;;;;5164674;27;20048;-44
2021/12/15 06:12:08;;;;;;;3.15;2.38;;;20.60;53.40;;;;;;5165033;27;20094;-43
2021/12/15 06:14:34;;;;;;;3.50;2.33;;;20.70;53.50;;;;;;5164775;27;20023;-44
2021/12/15 06:17:06;;;;;;;4.32;2.75;;;20.60;53.10;;;;;;5164320;27;20591;-43
2021/12/15 06:19:33;;;;;;;3.20;2.50;;;20.50;53.10;;;;;;5164734;27;20022;-43
2021/12/15 06:21:59;;;;;;;2.88;2.40;;;20.50;53.30;;;;;;5165691;27;20034;-44
2021/12/15 06:24:25;;;;;;;3.28;2.42;;;20.60;53.50;;;;;;5164174;27;20057;-42
2021/12/15 06:26:51;;;;;;;3.60;2.67;;;20.60;53.30;;;;;;5164548;27;20079;-44
2021/12/15 06:29:17;;;;;;;3.67;2.30;;;20.70;53.30;;;;;;5164496;27;20032;-43
2021/12/15 06:31:44;;;;;;;3.38;2.65;;;20.70;53.00;;;;;;5164086;27;20037;-43
2021/12/15 06:34:10;;;;;;;3.50;2.53;;;20.60;52.90;;;;;;5164434;27;20030;-43
2021/12/15 06:36:36;;;;;;;4.13;2.80;;;20.50;53.00;;;;;;5164401;27;20080;-45
2021/12/15 06:39:03;;;;;;;3.53;2.40;;;20.50;53.20;;;;;;5163591;27;20031;-44
2021/12/15 06:41:30;;;;;;;3.33;2.40;;;20.60;53.30;;;;;;5164363;27;20133;-44
2021/12/15 06:43:57;;;;;;;3.60;2.60;;;20.60;53.20;;;;;;5164425;27;20046;-47
2021/12/15 06:46:48;;;;;;;3.40;2.40;;;20.70;53.20;;;;;;5144894;27;20082;-45
2021/12/15 07:00:11;;;;;;;3.17;2.10;;;20.70;53.00;;;;;;5162671;27;20021;-44
2021/12/15 07:02:38;;;;;;;4.00;2.42;;;20.70;53.10;;;;;;5161910;27;20047;-44
2021/12/15 07:05:07;;;;;;;3.22;2.15;;;20.70;52.80;;;;;;5164305;27;20099;-44
2021/12/15 07:07:34;;;;;;;3.83;2.60;;;20.60;52.80;;;;;;5163512;27;20114;-43
2021/12/15 07:10:01;;;;;;;3.97;2.70;;;20.50;52.80;;;;;;5163459;27;20022;-45
2021/12/15 07:12:28;;;;;;;3.78;2.70;;;20.60;53.00;;;;;;5163723;27;20038;-42
2021/12/15 07:14:54;;;;;;;2.95;2.25;;;20.70;53.00;;;;;;5163857;27;20022;-43
2021/12/15 07:17:23;;;;;;;3.30;2.40;;;20.70;52.90;;;;;;5163630;27;20106;-43
2021/12/15 07:20:29;;;;;;;3.08;2.33;;;20.70;52.70;;;;;;5162717;27;20099;-43
2021/12/15 07:25:07;;;;;;;2.50;2.10;;;20.60;52.70;;;;;;5163597;27;20422;-45
2021/12/15 07:27:33;;;;;;;3.40;2.35;;;20.60;53.00;;;;;;5163437;27;20058;-44
2021/12/15 07:30:00;;;;;;;3.30;2.33;;;20.60;52.90;;;;;;5162377;27;20034;-44
2021/12/15 07:32:26;;;;;;;4.07;2.40;;;20.70;52.80;;;;;;5163320;27;20030;-44
2021/12/15 07:34:52;;;;;;;3.30;2.28;;;20.80;52.80;;;;;;5163547;27;20027;-44
2021/12/15 07:37:19;;;;;;;4.05;2.30;;;20.70;52.70;;;;;;5162970;27;20038;-43
2021/12/15 07:39:54;;;;;;;3.25;2.47;;;20.70;52.50;;;;;;5162632;27;20684;-44
2021/12/15 07:42:30;;;;;;;2.85;2.00;;;20.60;52.60;;;;;;5163175;27;20027;-43
2021/12/15 07:44:56;;;;;;;2.58;1.95;;;20.60;52.80;;;;;;5163346;27;20023;-43
2021/12/15 07:47:22;;;;;;;3.38;2.42;;;20.70;52.80;;;;;;5162801;27;20083;-44
2021/12/15 07:49:48;;;;;;;2.92;2.13;;;20.80;52.80;;;;;;5162493;27;20048;-45
2021/12/15 07:52:14;;;;;;;3.53;2.30;;;20.80;52.60;;;;;;5161014;27;20026;-43
2021/12/15 07:54:40;;;;;;;2.88;2.13;;;20.70;52.50;;;;;;5162945;27;20018;-43
2021/12/15 07:57:09;;;;;;;3.83;2.50;;;20.60;52.50;;;;;;5162600;27;20027;-43
2021/12/15 07:59:36;;;;;;;3.72;2.40;;;20.60;52.60;;;;;;5162782;27;20021;-43
2021/12/15 08:02:02;;;;;;;2.97;2.13;;;20.70;52.70;;;;;;5162268;27;20665;-43
2021/12/15 08:04:28;;;;;;;2.77;2.23;;;20.80;52.60;;;;;;5144026;27;20383;-44
2021/12/15 08:06:54;;;;;;;2.97;2.25;;;20.80;52.60;;;;;;5162731;27;20079;-44
2021/12/15 08:09:22;;;;;;;3.40;2.38;;;20.80;52.40;;;;;;5162688;27;20050;-45
2021/12/15 08:11:49;;;;;;;3.17;2.00;;;20.70;52.90;;;;;;5162756;27;20072;-44
2021/12/15 08:14:15;;;;;;;;;;;20.60;53.10;;;;;;5163290;27;20033;-44
2021/12/15 08:16:42;;;;;;;3.00;2.05;;;20.70;52.60;;;;;;5162772;27;19919;-44
2021/12/15 08:19:09;;;;;;;3.22;2.30;;;20.70;52.60;;;;;;5162092;27;20030;-44
2021/12/15 08:21:35;;;;;;;;;;;20.80;52.60;;;;;;5161679;27;20087;-43
2021/12/15 08:24:01;;;;;;;2.42;2.10;;;20.80;52.40;;;;;;5162551;27;20167;-45
2021/12/15 08:26:28;;;;;;;3.90;2.20;;;20.70;52.20;;;;;;5162270;27;20069;-46
2021/12/15 08:28:54;;;;;;;2.40;1.97;;;20.60;52.30;;;;;;5162351;27;20058;-45
2021/12/15 08:31:20;;;;;;;2.20;2.00;;;20.70;52.60;;;;;;5164030;27;20023;-44
2021/12/15 08:33:47;;;;;;;2.65;2.10;;;20.80;52.50;;;;;;5162345;27;20616;-43
2021/12/15 08:36:13;;;;;;;2.70;2.00;;;20.80;52.40;;;;;;5162165;27;20019;-44
2021/12/15 08:38:41;;;;;;;3.27;2.20;;;20.80;52.40;;;;;;5162289;27;20035;-45
2021/12/15 08:41:13;;;;;;;2.40;1.85;;;20.80;52.10;;;;;;5160298;27;20023;-44
2021/12/15 08:43:39;;;;;;;2.58;2.13;;;20.70;52.20;;;;;;5160510;27;20037;-43
2021/12/15 08:46:22;;;;;;;3.45;2.42;;;20.60;52.30;;;;;;5162419;27;20026;-44
2021/12/15 08:48:49;;;;;;;2.17;1.73;;;20.70;52.50;;;;;;5163692;27;20026;-45
2021/12/15 08:51:17;;;;;;;2.92;2.03;;;20.70;52.40;;;;;;5165945;27;20030;-43
2021/12/15 08:53:43;;;;;;;3.38;2.17;;;20.80;52.50;;;;;;5166099;27;20138;-44
2021/12/15 08:56:10;;;;;;;3.83;2.37;;;20.80;52.40;;;;;;5166209;27;20039;-45
2021/12/15 08:58:36;;;;;;;2.70;2.05;;;20.70;52.10;;;;;;5166061;27;20067;-43
2021/12/15 09:01:03;;;;;;;2.50;2.10;;;20.60;52.20;;;;;;5166265;27;20581;-43
2021/12/15 09:03:29;;;;;;;3.90;2.42;;;20.70;52.40;;;;;;5166154;27;20026;-44
2021/12/15 09:05:56;;;;;;;2.30;1.67;;;20.70;52.40;;;;;;5166175;27;20418;-43
2021/12/15 09:08:24;;;;;;;;;;;20.80;52.30;;;;;;5165930;27;20250;-43
2021/12/15 09:10:51;;;;;;;2.63;1.90;;;20.80;52.30;;;;;;5165834;27;19922;-46
2021/12/15 09:13:18;;;;;;;2.83;2.28;;;20.80;52.60;;;;;;5165919;27;20022;-43
2021/12/15 09:15:44;;;;;;;3.35;2.30;;;20.70;52.00;;;;;;5166257;27;20030;-45
2021/12/15 09:18:11;;;;;;;2.30;2.10;;;20.70;52.10;;;;;;5165541;27;20038;-44
2021/12/15 09:20:37;;;;;;;3.30;2.10;;;20.70;52.40;;;;;;5166146;27;20390;-43
2021/12/15 09:23:06;;;;;;;2.10;1.83;;;20.80;52.30;;;;;;5167171;27;20027;-45
2021/12/15 09:25:32;;;;;;;2.42;2.00;;;20.90;52.20;;;;;;5165619;27;20047;-45
2021/12/15 09:27:58;;;;;;;3.03;2.10;;;20.80;52.20;;;;;;5165661;27;20037;-45
2021/12/15 09:30:25;;;;;;;2.60;2.20;;;20.80;52.00;;;;;;5165256;27;20059;-45
2021/12/15 09:32:52;;;;;;;3.25;2.47;;;20.70;52.00;;;;;;5165779;27;20034;-45
2021/12/15 09:35:18;;;;;;;2.72;1.90;;;20.70;52.30;;;;;;5165197;27;20031;-43
2021/12/15 09:37:44;;;;;;;2.70;2.27;;;20.80;52.30;;;;;;5165376;27;20035;-44
2021/12/15 09:40:11;;;;;;;2.53;2.22;;;20.80;52.30;;;;;;5146629;27;20018;-43
2021/12/15 09:42:39;;;;;;;3.10;2.37;;;20.90;52.20;;;;;;5165655;27;20026;-43
2021/12/15 10:02:03;;;;;;;2.45;2.05;;;20.90;52.10;;;;;;5136381;27;20085;-44
2021/12/15 10:04:41;;;;;;;3.30;2.17;;;20.80;51.80;;;;;;5059491;27;20059;-45
2021/12/15 10:20:57;;;;;;;2.85;2.35;;;20.70;51.70;;;;;;5121643;27;20057;-43
2021/12/15 10:23:30;;;;;;;2.53;2.10;;;20.70;51.90;;;;;;5059432;28;20021;-46
2021/12/15 10:25:57;;;;;;;2.80;2.20;;;20.70;52.00;;;;;;5057971;28;21178;-45
2021/12/15 10:28:28;;;;;;;3.72;2.28;;;20.80;51.90;;;;;;5058635;28;20100;-44
2021/12/15 10:30:56;;;;;;;2.67;2.13;;;20.90;52.00;;;;;;5058765;28;20050;-44
2021/12/15 10:33:30;;;;;;;2.72;2.33;;;20.80;51.70;;;;;;5058751;28;20025;-45
2021/12/15 10:36:11;;;;;;;2.95;2.22;;;20.80;51.70;;;;;;5057560;28;20033;-44
2021/12/15 10:38:43;;;;;;;2.35;2.10;;;20.70;51.70;;;;;;5058937;28;20040;-43
2021/12/15 10:41:13;;;;;;;2.92;2.22;;;20.80;51.90;;;;;;5060502;27;20044;-45
2021/12/15 10:44:03;;;;;;;2.97;2.25;;;20.80;51.80;;;;;;5058858;27;20022;-43
2021/12/15 10:46:46;;;;;;;2.80;1.98;;;20.90;51.70;;;;;;5059004;27;20029;-46
2021/12/15 10:49:21;;;;;;;2.83;2.30;;;20.80;51.50;;;;;;5056777;28;20062;-44
2021/12/15 10:51:48;;;;;;;2.97;2.40;;;20.70;51.50;;;;;;5058693;27;20036;-45
2021/12/15 10:54:21;;;;;;;2.97;2.30;;;20.70;51.80;;;;;;5057536;28;20032;-44
2021/12/15 10:57:28;;;;;;;3.55;2.22;;;20.80;51.70;;;;;;5057598;28;20180;-43
2021/12/15 10:59:54;;;;;;;3.72;1.98;;;20.90;51.70;;;;;;5061722;28;20073;-44
2021/12/15 11:02:27;;;;;;;2.15;1.95;;;20.90;51.70;;;;;;5118419;27;20053;-43
2021/12/15 11:04:57;;;;;;;2.75;2.10;;;20.80;51.40;;;;;;5066840;27;20043;-44
2021/12/15 11:07:34;;;;;;;2.47;2.17;;;20.80;51.40;;;;;;5066164;27;20097;-43
2021/12/15 11:10:05;;;;;;;4.27;2.20;;;20.70;51.60;;;;;;5065181;27;20055;-46
2021/12/15 11:12:54;;;;;;;2.80;2.35;;;20.80;51.70;;;;;;5067677;27;20327;-45
2021/12/15 11:15:23;;;;;;;2.58;2.20;;;20.80;51.60;;;;;;5077403;27;20099;-44
2021/12/15 11:17:57;;;;;;;2.50;2.03;;;20.90;51.60;;;;;;5061127;27;20044;-43
2021/12/15 11:20:24;;;;;;;2.17;1.65;;;20.80;51.40;;;;;;5079680;27;20022;-43
2021/12/15 11:23:02;;;;;;;2.45;1.88;;;20.80;51.30;;;;;;5076989;27;20043;-45
2021/12/15 11:25:36;;;;;;;2.10;1.90;;;20.70;51.50;;;;;;5079645;27;20140;-42
2021/12/15 11:28:04;;;;;;;2.40;2.08;;;20.80;51.70;;;;;;5060555;27;20029;-45
2021/12/15 11:30:44;;;;;;;1.90;1.73;;;20.80;51.50;;;;;;5045989;27;20037;-45
2021/12/15 11:33:16;;;;;;;2.10;1.77;;;20.90;51.60;;;;;;5086934;27;20037;-44
2021/12/15 11:35:57;;;;;;;2.00;1.80;;;20.90;51.40;;;;;;5066983;27;20033;-43
2021/12/15 11:38:31;;;;;;;2.53;2.20;;;20.80;51.20;;;;;;5075340;27;20031;-43
2021/12/15 11:40:57;;;;;;;1.70;1.60;;;20.70;51.30;;;;;;5061593;27;20025;-45
2021/12/15 11:43:29;;;;;;;2.55;1.80;;;20.70;51.60;;;;;;5072813;27;20031;-43
2021/12/15 11:45:55;;;;;;;2.45;1.75;;;20.80;51.50;;;;;;5071157;27;20106;-45
2021/12/15 11:48:24;;;;;;;3.50;1.73;;;20.90;51.50;;;;;;5080483;27;20759;-44
2021/12/15 11:50:53;;;;;;;2.05;1.80;;;20.90;51.50;;;;;;5070147;27;20059;-42
2021/12/15 11:53:39;;;;;;;2.42;1.75;;;20.90;51.30;;;;;;5070880;27;20148;-44
2021/12/15 11:56:16;;;;;;;2.20;2.00;;;20.70;51.20;;;;;;5064739;27;20026;-45
2021/12/15 11:58:42;;;;;;;;;;;20.70;51.50;;;;;;5053470;27;20049;-46
2021/12/15 12:01:09;;;;;;;1.73;1.50;;;20.80;51.50;;;;;;5083587;27;19909;-44
2021/12/15 12:03:37;;;;;;;3.25;1.75;;;20.90;51.50;;;;;;5162459;27;20038;-43
2021/12/15 12:06:04;;;;;;;2.35;1.90;;;20.90;51.50;;;;;;5162424;27;20168;-43
2021/12/15 12:08:30;;;;;;;2.13;1.60;;;20.90;51.30;;;;;;5145260;27;20087;-43
2021/12/15 12:11:04;;;;;;;1.85;1.67;;;20.80;51.20;;;;;;5162677;27;20023;-44
2021/12/15 12:13:37;;;;;;;1.92;1.60;;;20.70;51.30;;;;;;5161851;27;20033;-44
2021/12/15 12:16:05;;;;;;;2.15;1.90;;;20.80;51.60;;;;;;5162549;27;20031;-45
2021/12/15 12:18:32;;;;;;;1.67;1.58;;;20.80;51.50;;;;;;5161825;27;20038;-44
2021/12/15 12:21:04;;;;;;;3.28;1.83;;;20.90;51.40;;;;;;5162264;27;20023;-44
2021/12/15 12:23:31;;;;;;;1.70;1.60;;;20.90;51.40;;;;;;5161494;27;20042;-46
2021/12/15 12:26:01;;;;;;;1.80;1.40;;;20.90;51.30;;;;;;5162472;27;20026;-43
2021/12/15 12:28:29;;;;;;;1.85;1.50;;;20.70;51.20;;;;;;5161861;27;20026;-45
2021/12/15 12:31:01;;;;;;;2.30;1.77;;;20.80;51.60;;;;;;5162004;27;20034;-46
2021/12/15 12:33:28;;;;;;;2.35;1.50;;;20.80;51.50;;;;;;5162078;27;20033;-44
2021/12/15 12:36:04;;;;;;;2.75;1.70;;;20.90;51.50;;;;;;5162096;27;20031;-43
2021/12/15 12:38:32;;;;;;;2.13;1.65;;;20.90;51.40;;;;;;5161921;27;20038;-43
2021/12/15 12:41:22;;;;;;;2.22;1.40;;;20.90;51.30;;;;;;5161028;27;20027;-44
2021/12/15 12:43:50;;;;;;;2.63;1.77;;;20.80;51.30;;;;;;5161144;27;20728;-46
2021/12/15 12:46:22;;;;;;;2.22;1.65;;;20.80;51.60;;;;;;5143649;27;20031;-44
2021/12/15 13:00:00;;;;;;;2.03;1.65;;;20.80;51.40;;;;;;5160407;27;20055;-44
2021/12/15 13:02:28;;;;;;;1.80;1.40;;;20.80;51.50;;;;;;5160190;27;20067;-45
2021/12/15 13:04:54;;;;;;;1.80;1.50;;;20.90;51.60;;;;;;5161958;27;20022;-44
2021/12/15 13:07:48;;;;;;;1.33;1.23;;;20.90;51.50;;;;;;5161838;27;20855;-43
2021/12/15 13:10:14;;;;;;;1.70;1.30;;;20.90;51.50;;;;;;5139776;27;20031;-44
2021/12/15 13:12:47;;;;;;;1.65;1.52;;;20.90;51.30;;;;;;5161707;27;20022;-44
2021/12/15 13:15:17;;;;;;;2.15;1.67;;;20.90;51.90;;;;;;5161869;27;20030;-45
2021/12/15 13:18:01;;;;;;;2.22;1.40;;;20.80;51.50;;;;;;5162982;27;20065;-46
2021/12/15 13:20:31;;;;;;;1.58;1.48;;;20.90;51.50;;;;;;5160999;27;20098;-44
2021/12/15 13:23:08;;;;;;;1.75;1.40;;;20.90;51.50;;;;;;5159426;27;20034;-44
2021/12/15 13:31:29;;;;;;;1.97;1.60;;;20.90;51.40;;;;;;5076118;28;20503;-43
2021/12/15 13:33:57;;;;;;;3.60;1.80;;;20.80;51.60;;;;;;5077503;28;20157;-44
2021/12/15 13:36:33;;;;;;;1.85;1.63;;;20.90;51.60;;;;;;5080825;28;20757;-44
2021/12/15 13:39:15;;;;;;;1.85;1.60;;;20.90;51.60;;;;;;5080324;28;20488;-44
2021/12/15 13:41:54;;;;;;;1.65;1.30;;;21.00;51.60;;;;;;5078753;28;20096;-43
2021/12/15 13:44:35;;;;;;;1.98;1.65;;;20.90;51.40;;;;;;5080653;28;20072;-43
2021/12/15 13:47:07;;;;;;;1.90;1.70;;;20.90;51.40;;;;;;5080214;28;20138;-45
2021/12/15 13:49:54;;;;;;;1.50;1.40;;;20.80;51.50;;;;;;5079925;28;20032;-45
2021/12/15 13:52:42;;;;;;;2.20;1.60;;;20.90;51.60;;;;;;5079458;28;20036;-44
2021/12/15 13:55:35;;;;;;;1.52;1.42;;;21.00;51.60;;;;;;5080493;28;20043;-45
2021/12/15 13:58:12;;;;;;;2.40;1.77;;;21.00;51.60;;;;;;5079488;28;20052;-46
2021/12/15 14:00:42;;;;;;;2.17;1.63;;;21.00;51.60;;;;;;5079275;28;20024;-42
2021/12/15 14:03:23;;;;;;;1.88;1.52;;;20.90;51.40;;;;;;5080031;28;20095;-44
2021/12/15 14:06:13;;;;;;;1.85;1.60;;;20.90;51.50;;;;;;5079026;28;20039;-43
2021/12/15 14:08:44;;;;;;;1.40;1.25;;;20.90;51.70;;;;;;5156310;27;20062;-43
2021/12/15 14:11:23;;;;;;;1.90;1.60;;;20.90;51.60;;;;;;5162516;27;20499;-44
2021/12/15 14:13:58;;;;;;;1.70;1.40;;;21.00;51.50;;;;;;5163600;27;20030;-43
2021/12/15 14:16:35;;;;;;;2.38;1.70;;;21.00;51.50;;;;;;5164316;27;20027;-42
2021/12/15 14:19:04;;;;;;;1.98;1.60;;;21.00;51.40;;;;;;5164706;27;20679;-46
2021/12/15 14:21:31;;;;;;;2.20;1.90;;;20.90;51.30;;;;;;5163512;27;20121;-43
2021/12/15 14:23:58;;;;;;;2.38;1.88;;;20.90;51.40;;;;;;5163227;27;20022;-43
2021/12/15 14:26:27;;;;;;;2.03;1.80;;;20.90;51.50;;;;;;5164606;27;20027;-45
2021/12/15 14:28:57;;;;;;;2.17;1.52;;;21.00;51.40;;;;;;5164243;27;20038;-44
2021/12/15 14:31:31;;;;;;;2.00;1.80;;;21.00;51.40;;;;;;5165611;27;20780;-45
2021/12/15 14:34:12;;;;;;;2.05;1.50;;;21.00;51.80;;;;;;5164147;27;20388;-47